sensor_id;sensor_type;location;lat;lon;timestamp;P1;durP1;ratioP1;P2;durP2;ratioP2
24161;SDS011;12318;51.262;7.066;2022-11-20T00:01:09;21.02;;;15.63;;
24161;SDS011;12318;51.262;7.066;2022-11-20T00:03:41;18.63;;;14.02;;
24161;SDS011;12318;51.262;7.066;2022-11-20T00:06:09;18.77;;;14.10;;
24161;SDS011;12318;51.262;7.066;2022-11-20T00:08:36;19.55;;;14.88;;
24161;SDS011;12318;51.262;7.066;2022-11-20T00:11:12;18.70;;;13.93;;
24161;SDS011;12318;51.262;7.066;2022-11-20T00:13:40;20.70;;;14.60;;
24161;SDS011;12318;51.262;7.066;2022-11-20T00:16:07;19.20;;;14.43;;
24161;SDS011;12318;51.262;7.066;2022-11-20T00:18:35;20.08;;;14.68;;
24161;SDS011;12318;51.262;7.066;2022-11-20T00:21:02;19.75;;;14.73;;
24161;SDS011;12318;51.262;7.066;2022-11-20T00:23:29;19.88;;;14.20;;
24161;SDS011;12318;51.262;7.066;2022-11-20T00:25:55;20.92;;;15.02;;
24161;SDS011;12318;51.262;7.066;2022-11-20T00:28:21;18.58;;;13.60;;
24161;SDS011;12318;51.262;7.066;2022-11-20T00:30:47;20.42;;;14.45;;
24161;SDS011;12318;51.262;7.066;2022-11-20T00:33:13;19.35;;;15.05;;
24161;SDS011;12318;51.262;7.066;2022-11-20T00:35:38;22.48;;;15.00;;
24161;SDS011;12318;51.262;7.066;2022-11-20T00:38:04;21.98;;;14.73;;
24161;SDS011;12318;51.262;7.066;2022-11-20T00:40:30;18.08;;;13.60;;
24161;SDS011;12318;51.262;7.066;2022-11-20T00:42:56;21.42;;;14.48;;
24161;SDS011;12318;51.262;7.066;2022-11-20T00:45:21;21.40;;;14.50;;
24161;SDS011;12318;51.262;7.066;2022-11-20T00:47:47;22.05;;;14.85;;
24161;SDS011;12318;51.262;7.066;2022-11-20T00:50:13;20.00;;;14.90;;
24161;SDS011;12318;51.262;7.066;2022-11-20T00:52:39;21.08;;;15.32;;
24161;SDS011;12318;51.262;7.066;2022-11-20T00:55:05;21.30;;;15.63;;
24161;SDS011;12318;51.262;7.066;2022-11-20T00:57:31;24.17;;;16.85;;
24161;SDS011;12318;51.262;7.066;2022-11-20T00:59:57;19.55;;;14.60;;
24161;SDS011;12318;51.262;7.066;2022-11-20T01:02:22;22.85;;;15.23;;
24161;SDS011;12318;51.262;7.066;2022-11-20T01:04:48;17.40;;;12.48;;
24161;SDS011;12318;51.262;7.066;2022-11-20T01:07:14;18.67;;;13.93;;
24161;SDS011;12318;51.262;7.066;2022-11-20T01:09:40;21.33;;;13.93;;
24161;SDS011;12318;51.262;7.066;2022-11-20T01:12:05;20.98;;;13.73;;
24161;SDS011;12318;51.262;7.066;2022-11-20T01:14:31;19.90;;;14.27;;
24161;SDS011;12318;51.262;7.066;2022-11-20T01:16:57;22.58;;;14.77;;
24161;SDS011;12318;51.262;7.066;2022-11-20T01:19:23;20.27;;;14.68;;
24161;SDS011;12318;51.262;7.066;2022-11-20T01:21:50;20.65;;;15.90;;
24161;SDS011;12318;51.262;7.066;2022-11-20T01:24:18;22.33;;;16.02;;
24161;SDS011;12318;51.262;7.066;2022-11-20T01:26:46;25.27;;;16.83;;
24161;SDS011;12318;51.262;7.066;2022-11-20T01:29:14;25.45;;;16.20;;
24161;SDS011;12318;51.262;7.066;2022-11-20T01:31:42;24.55;;;16.48;;
24161;SDS011;12318;51.262;7.066;2022-11-20T01:34:12;29.83;;;19.77;;
24161;SDS011;12318;51.262;7.066;2022-11-20T01:36:42;25.30;;;16.73;;
24161;SDS011;12318;51.262;7.066;2022-11-20T01:39:15;22.92;;;16.25;;
24161;SDS011;12318;51.262;7.066;2022-11-20T01:41:44;27.10;;;18.13;;
24161;SDS011;12318;51.262;7.066;2022-11-20T01:47:37;25.58;;;17.75;;
24161;SDS011;12318;51.262;7.066;2022-11-20T01:50:15;23.83;;;15.80;;
24161;SDS011;12318;51.262;7.066;2022-11-20T01:52:52;24.95;;;16.40;;
24161;SDS011;12318;51.262;7.066;2022-11-20T01:55:25;24.88;;;17.13;;
24161;SDS011;12318;51.262;7.066;2022-11-20T01:57:55;25.55;;;16.48;;
24161;SDS011;12318;51.262;7.066;2022-11-20T02:00:21;22.15;;;16.27;;
24161;SDS011;12318;51.262;7.066;2022-11-20T02:02:48;23.38;;;17.23;;
24161;SDS011;12318;51.262;7.066;2022-11-20T02:05:32;23.77;;;16.23;;
24161;SDS011;12318;51.262;7.066;2022-11-20T02:08:08;23.80;;;17.63;;
24161;SDS011;12318;51.262;7.066;2022-11-20T02:10:34;28.73;;;18.02;;
24161;SDS011;12318;51.262;7.066;2022-11-20T02:13:00;21.17;;;15.48;;
24161;SDS011;12318;51.262;7.066;2022-11-20T02:15:45;24.10;;;15.98;;
24161;SDS011;12318;51.262;7.066;2022-11-20T02:18:13;23.27;;;16.58;;
24161;SDS011;12318;51.262;7.066;2022-11-20T02:20:44;22.30;;;16.50;;
24161;SDS011;12318;51.262;7.066;2022-11-20T02:23:12;20.35;;;13.90;;
24161;SDS011;12318;51.262;7.066;2022-11-20T02:25:58;28.05;;;19.10;;
24161;SDS011;12318;51.262;7.066;2022-11-20T02:28:28;27.83;;;18.80;;
24161;SDS011;12318;51.262;7.066;2022-11-20T02:30:54;24.20;;;17.38;;
24161;SDS011;12318;51.262;7.066;2022-11-20T02:33:19;25.05;;;17.58;;
24161;SDS011;12318;51.262;7.066;2022-11-20T02:35:46;28.45;;;17.92;;
24161;SDS011;12318;51.262;7.066;2022-11-20T02:38:12;27.60;;;18.40;;
24161;SDS011;12318;51.262;7.066;2022-11-20T02:40:38;25.95;;;17.58;;
24161;SDS011;12318;51.262;7.066;2022-11-20T02:43:04;25.85;;;17.38;;
24161;SDS011;12318;51.262;7.066;2022-11-20T02:45:30;27.25;;;18.35;;
24161;SDS011;12318;51.262;7.066;2022-11-20T02:47:56;28.23;;;19.30;;
24161;SDS011;12318;51.262;7.066;2022-11-20T02:50:22;27.02;;;19.13;;
24161;SDS011;12318;51.262;7.066;2022-11-20T02:52:48;27.45;;;18.88;;
24161;SDS011;12318;51.262;7.066;2022-11-20T02:55:14;31.15;;;21.10;;
24161;SDS011;12318;51.262;7.066;2022-11-20T02:57:40;27.92;;;19.67;;
24161;SDS011;12318;51.262;7.066;2022-11-20T03:00:07;30.85;;;20.30;;
24161;SDS011;12318;51.262;7.066;2022-11-20T03:02:34;25.48;;;18.60;;
24161;SDS011;12318;51.262;7.066;2022-11-20T03:04:59;30.48;;;19.67;;
24161;SDS011;12318;51.262;7.066;2022-11-20T03:07:26;30.25;;;20.50;;
24161;SDS011;12318;51.262;7.066;2022-11-20T03:09:51;28.48;;;19.45;;
24161;SDS011;12318;51.262;7.066;2022-11-20T03:12:17;29.17;;;19.27;;
24161;SDS011;12318;51.262;7.066;2022-11-20T03:14:43;29.33;;;20.58;;
24161;SDS011;12318;51.262;7.066;2022-11-20T03:17:09;30.00;;;20.80;;
24161;SDS011;12318;51.262;7.066;2022-11-20T03:19:34;27.58;;;18.50;;
24161;SDS011;12318;51.262;7.066;2022-11-20T03:22:00;29.77;;;19.77;;
24161;SDS011;12318;51.262;7.066;2022-11-20T03:24:26;29.08;;;19.55;;
24161;SDS011;12318;51.262;7.066;2022-11-20T03:26:52;34.22;;;19.92;;
24161;SDS011;12318;51.262;7.066;2022-11-20T03:29:18;28.73;;;19.95;;
24161;SDS011;12318;51.262;7.066;2022-11-20T03:31:43;30.67;;;21.15;;
24161;SDS011;12318;51.262;7.066;2022-11-20T03:34:10;31.25;;;21.92;;
24161;SDS011;12318;51.262;7.066;2022-11-20T03:36:40;33.00;;;21.95;;
24161;SDS011;12318;51.262;7.066;2022-11-20T03:39:08;32.05;;;21.73;;
24161;SDS011;12318;51.262;7.066;2022-11-20T03:41:38;34.85;;;22.83;;
24161;SDS011;12318;51.262;7.066;2022-11-20T03:44:06;31.08;;;21.55;;
24161;SDS011;12318;51.262;7.066;2022-11-20T03:46:34;29.10;;;20.80;;
24161;SDS011;12318;51.262;7.066;2022-11-20T03:49:00;28.35;;;20.20;;
24161;SDS011;12318;51.262;7.066;2022-11-20T03:51:27;29.75;;;20.00;;
24161;SDS011;12318;51.262;7.066;2022-11-20T03:53:56;31.17;;;21.38;;
24161;SDS011;12318;51.262;7.066;2022-11-20T03:56:24;29.77;;;21.17;;
24161;SDS011;12318;51.262;7.066;2022-11-20T03:58:52;30.45;;;20.25;;
24161;SDS011;12318;51.262;7.066;2022-11-20T04:01:19;31.50;;;21.80;;
24161;SDS011;12318;51.262;7.066;2022-11-20T04:03:46;30.92;;;21.75;;
24161;SDS011;12318;51.262;7.066;2022-11-20T04:06:14;31.80;;;22.70;;
24161;SDS011;12318;51.262;7.066;2022-11-20T04:08:42;30.73;;;20.25;;
24161;SDS011;12318;51.262;7.066;2022-11-20T04:11:10;25.40;;;18.33;;
24161;SDS011;12318;51.262;7.066;2022-11-20T04:13:54;32.22;;;21.85;;
24161;SDS011;12318;51.262;7.066;2022-11-20T04:16:24;30.52;;;20.25;;
24161;SDS011;12318;51.262;7.066;2022-11-20T04:18:57;31.50;;;21.08;;
24161;SDS011;12318;51.262;7.066;2022-11-20T04:21:24;29.25;;;20.70;;
24161;SDS011;12318;51.262;7.066;2022-11-20T04:23:51;31.13;;;20.30;;
24161;SDS011;12318;51.262;7.066;2022-11-20T04:26:21;35.40;;;21.80;;
24161;SDS011;12318;51.262;7.066;2022-11-20T04:28:47;30.92;;;22.10;;
24161;SDS011;12318;51.262;7.066;2022-11-20T04:31:17;32.28;;;21.10;;
24161;SDS011;12318;51.262;7.066;2022-11-20T04:33:45;28.77;;;18.80;;
24161;SDS011;12318;51.262;7.066;2022-11-20T04:36:13;31.90;;;20.50;;
24161;SDS011;12318;51.262;7.066;2022-11-20T04:38:40;29.08;;;19.85;;
24161;SDS011;12318;51.262;7.066;2022-11-20T04:41:06;27.67;;;19.85;;
24161;SDS011;12318;51.262;7.066;2022-11-20T04:43:38;30.83;;;21.40;;
24161;SDS011;12318;51.262;7.066;2022-11-20T04:46:04;29.85;;;20.70;;
24161;SDS011;12318;51.262;7.066;2022-11-20T04:48:30;33.08;;;21.50;;
24161;SDS011;12318;51.262;7.066;2022-11-20T04:50:56;30.83;;;21.80;;
24161;SDS011;12318;51.262;7.066;2022-11-20T04:53:22;30.65;;;22.40;;
24161;SDS011;12318;51.262;7.066;2022-11-20T04:55:49;28.00;;;20.33;;
24161;SDS011;12318;51.262;7.066;2022-11-20T04:58:15;33.03;;;23.52;;
24161;SDS011;12318;51.262;7.066;2022-11-20T05:00:41;32.33;;;22.08;;
24161;SDS011;12318;51.262;7.066;2022-11-20T05:03:06;30.73;;;22.10;;
24161;SDS011;12318;51.262;7.066;2022-11-20T05:05:35;33.00;;;22.25;;
24161;SDS011;12318;51.262;7.066;2022-11-20T05:08:01;34.30;;;22.67;;
24161;SDS011;12318;51.262;7.066;2022-11-20T05:10:27;31.20;;;21.27;;
24161;SDS011;12318;51.262;7.066;2022-11-20T05:12:52;32.90;;;22.65;;
24161;SDS011;12318;51.262;7.066;2022-11-20T05:15:18;31.02;;;22.38;;
24161;SDS011;12318;51.262;7.066;2022-11-20T05:17:48;31.15;;;22.42;;
24161;SDS011;12318;51.262;7.066;2022-11-20T05:20:14;36.55;;;23.08;;
24161;SDS011;12318;51.262;7.066;2022-11-20T05:22:40;32.58;;;21.77;;
24161;SDS011;12318;51.262;7.066;2022-11-20T05:25:06;32.95;;;22.50;;
24161;SDS011;12318;51.262;7.066;2022-11-20T05:27:32;31.98;;;21.98;;
24161;SDS011;12318;51.262;7.066;2022-11-20T05:29:58;30.83;;;21.55;;
24161;SDS011;12318;51.262;7.066;2022-11-20T05:32:23;32.17;;;22.20;;
24161;SDS011;12318;51.262;7.066;2022-11-20T05:34:50;28.08;;;20.17;;
24161;SDS011;12318;51.262;7.066;2022-11-20T05:37:17;30.90;;;21.45;;
24161;SDS011;12318;51.262;7.066;2022-11-20T05:39:42;29.75;;;20.80;;
24161;SDS011;12318;51.262;7.066;2022-11-20T05:42:08;29.38;;;20.85;;
24161;SDS011;12318;51.262;7.066;2022-11-20T05:44:52;29.67;;;21.45;;
24161;SDS011;12318;51.262;7.066;2022-11-20T05:47:18;30.45;;;21.08;;
24161;SDS011;12318;51.262;7.066;2022-11-20T05:49:44;29.23;;;21.00;;
24161;SDS011;12318;51.262;7.066;2022-11-20T05:52:10;31.52;;;22.05;;
24161;SDS011;12318;51.262;7.066;2022-11-20T05:54:36;31.25;;;21.52;;
24161;SDS011;12318;51.262;7.066;2022-11-20T05:57:02;30.27;;;20.80;;
24161;SDS011;12318;51.262;7.066;2022-11-20T05:59:27;27.25;;;20.45;;
24161;SDS011;12318;51.262;7.066;2022-11-20T06:01:53;26.27;;;19.90;;
24161;SDS011;12318;51.262;7.066;2022-11-20T06:04:19;30.27;;;20.65;;
24161;SDS011;12318;51.262;7.066;2022-11-20T06:06:45;31.27;;;20.30;;
24161;SDS011;12318;51.262;7.066;2022-11-20T06:09:10;27.35;;;18.45;;
24161;SDS011;12318;51.262;7.066;2022-11-20T06:11:36;25.00;;;18.20;;
24161;SDS011;12318;51.262;7.066;2022-11-20T06:14:02;25.75;;;18.70;;
24161;SDS011;12318;51.262;7.066;2022-11-20T06:16:28;30.38;;;19.95;;
24161;SDS011;12318;51.262;7.066;2022-11-20T06:18:53;24.73;;;19.17;;
24161;SDS011;12318;51.262;7.066;2022-11-20T06:21:20;25.60;;;18.42;;
24161;SDS011;12318;51.262;7.066;2022-11-20T06:23:48;29.27;;;19.20;;
24161;SDS011;12318;51.262;7.066;2022-11-20T06:26:19;27.85;;;20.17;;
24161;SDS011;12318;51.262;7.066;2022-11-20T06:28:50;27.90;;;20.17;;
24161;SDS011;12318;51.262;7.066;2022-11-20T06:31:18;29.30;;;19.83;;
24161;SDS011;12318;51.262;7.066;2022-11-20T06:33:45;27.95;;;19.15;;
24161;SDS011;12318;51.262;7.066;2022-11-20T06:36:13;29.30;;;20.05;;
24161;SDS011;12318;51.262;7.066;2022-11-20T06:38:40;29.17;;;20.08;;
24161;SDS011;12318;51.262;7.066;2022-11-20T06:41:07;28.55;;;20.73;;
24161;SDS011;12318;51.262;7.066;2022-11-20T06:43:36;27.85;;;20.25;;
24161;SDS011;12318;51.262;7.066;2022-11-20T06:46:04;29.23;;;19.90;;
24161;SDS011;12318;51.262;7.066;2022-11-20T06:48:31;28.38;;;19.98;;
24161;SDS011;12318;51.262;7.066;2022-11-20T06:50:57;24.08;;;18.00;;
24161;SDS011;12318;51.262;7.066;2022-11-20T06:53:23;22.83;;;16.88;;
24161;SDS011;12318;51.262;7.066;2022-11-20T06:55:50;26.30;;;17.17;;
24161;SDS011;12318;51.262;7.066;2022-11-20T06:58:16;22.98;;;14.88;;
24161;SDS011;12318;51.262;7.066;2022-11-20T07:00:43;27.17;;;17.65;;
24161;SDS011;12318;51.262;7.066;2022-11-20T07:03:10;23.83;;;17.55;;
24161;SDS011;12318;51.262;7.066;2022-11-20T07:05:36;25.27;;;16.83;;
24161;SDS011;12318;51.262;7.066;2022-11-20T07:08:03;25.98;;;18.60;;
24161;SDS011;12318;51.262;7.066;2022-11-20T07:10:29;24.58;;;19.15;;
24161;SDS011;12318;51.262;7.066;2022-11-20T07:12:55;27.38;;;20.00;;
24161;SDS011;12318;51.262;7.066;2022-11-20T07:15:22;26.45;;;19.35;;
24161;SDS011;12318;51.262;7.066;2022-11-20T07:17:49;28.05;;;19.70;;
24161;SDS011;12318;51.262;7.066;2022-11-20T07:20:15;26.02;;;18.67;;
24161;SDS011;12318;51.262;7.066;2022-11-20T07:22:41;28.95;;;20.73;;
24161;SDS011;12318;51.262;7.066;2022-11-20T07:25:07;30.25;;;20.85;;
24161;SDS011;12318;51.262;7.066;2022-11-20T07:27:34;28.58;;;20.42;;
24161;SDS011;12318;51.262;7.066;2022-11-20T07:30:00;31.08;;;21.05;;
24161;SDS011;12318;51.262;7.066;2022-11-20T07:32:26;23.85;;;16.83;;
24161;SDS011;12318;51.262;7.066;2022-11-20T07:34:52;25.25;;;16.63;;
24161;SDS011;12318;51.262;7.066;2022-11-20T07:37:18;21.65;;;16.08;;
24161;SDS011;12318;51.262;7.066;2022-11-20T07:39:44;20.70;;;14.90;;
24161;SDS011;12318;51.262;7.066;2022-11-20T07:42:09;24.77;;;17.35;;
24161;SDS011;12318;51.262;7.066;2022-11-20T07:44:37;24.25;;;16.83;;
24161;SDS011;12318;51.262;7.066;2022-11-20T07:47:03;24.38;;;17.73;;
24161;SDS011;12318;51.262;7.066;2022-11-20T07:49:29;25.50;;;17.95;;
24161;SDS011;12318;51.262;7.066;2022-11-20T07:51:55;24.83;;;17.27;;
24161;SDS011;12318;51.262;7.066;2022-11-20T07:54:21;24.88;;;17.55;;
24161;SDS011;12318;51.262;7.066;2022-11-20T07:56:48;21.88;;;16.40;;
24161;SDS011;12318;51.262;7.066;2022-11-20T07:59:14;22.85;;;16.52;;
24161;SDS011;12318;51.262;7.066;2022-11-20T08:01:41;19.98;;;14.57;;
24161;SDS011;12318;51.262;7.066;2022-11-20T08:04:07;22.15;;;16.08;;
24161;SDS011;12318;51.262;7.066;2022-11-20T08:06:34;20.30;;;14.70;;
24161;SDS011;12318;51.262;7.066;2022-11-20T08:09:00;20.42;;;15.05;;
24161;SDS011;12318;51.262;7.066;2022-11-20T08:11:26;20.23;;;15.10;;
24161;SDS011;12318;51.262;7.066;2022-11-20T08:14:10;23.08;;;16.02;;
24161;SDS011;12318;51.262;7.066;2022-11-20T08:16:39;21.35;;;15.27;;
24161;SDS011;12318;51.262;7.066;2022-11-20T08:19:06;21.55;;;15.77;;
24161;SDS011;12318;51.262;7.066;2022-11-20T08:21:32;22.08;;;16.02;;
24161;SDS011;12318;51.262;7.066;2022-11-20T08:23:58;26.05;;;17.10;;
24161;SDS011;12318;51.262;7.066;2022-11-20T08:26:25;24.98;;;17.45;;
24161;SDS011;12318;51.262;7.066;2022-11-20T08:28:55;21.70;;;15.98;;
24161;SDS011;12318;51.262;7.066;2022-11-20T08:31:22;19.92;;;13.73;;
24161;SDS011;12318;51.262;7.066;2022-11-20T08:33:48;16.60;;;12.73;;
24161;SDS011;12318;51.262;7.066;2022-11-20T08:36:15;17.08;;;12.43;;
24161;SDS011;12318;51.262;7.066;2022-11-20T08:38:42;14.98;;;10.82;;
24161;SDS011;12318;51.262;7.066;2022-11-20T08:41:11;12.98;;;9.80;;
24161;SDS011;12318;51.262;7.066;2022-11-20T08:44:09;15.43;;;10.77;;
24161;SDS011;12318;51.262;7.066;2022-11-20T08:46:38;13.60;;;10.82;;
24161;SDS011;12318;51.262;7.066;2022-11-20T08:49:14;16.52;;;11.50;;
24161;SDS011;12318;51.262;7.066;2022-11-20T08:51:40;18.60;;;13.18;;
24161;SDS011;12318;51.262;7.066;2022-11-20T08:54:06;18.77;;;13.45;;
24161;SDS011;12318;51.262;7.066;2022-11-20T08:56:34;19.45;;;14.05;;
24161;SDS011;12318;51.262;7.066;2022-11-20T08:59:00;19.88;;;13.52;;
24161;SDS011;12318;51.262;7.066;2022-11-20T09:01:26;19.02;;;12.38;;
24161;SDS011;12318;51.262;7.066;2022-11-20T09:03:56;18.05;;;12.75;;
24161;SDS011;12318;51.262;7.066;2022-11-20T09:06:23;18.27;;;12.32;;
24161;SDS011;12318;51.262;7.066;2022-11-20T09:08:52;17.80;;;11.85;;
24161;SDS011;12318;51.262;7.066;2022-11-20T09:11:18;18.13;;;13.05;;
24161;SDS011;12318;51.262;7.066;2022-11-20T09:13:44;16.98;;;11.30;;
24161;SDS011;12318;51.262;7.066;2022-11-20T09:16:10;17.20;;;12.20;;
24161;SDS011;12318;51.262;7.066;2022-11-20T09:18:35;16.42;;;11.50;;
24161;SDS011;12318;51.262;7.066;2022-11-20T09:21:03;16.23;;;10.63;;
24161;SDS011;12318;51.262;7.066;2022-11-20T09:23:32;16.80;;;11.55;;
24161;SDS011;12318;51.262;7.066;2022-11-20T09:26:06;15.90;;;11.23;;
24161;SDS011;12318;51.262;7.066;2022-11-20T09:28:37;19.55;;;12.05;;
24161;SDS011;12318;51.262;7.066;2022-11-20T09:31:21;13.30;;;10.07;;
24161;SDS011;12318;51.262;7.066;2022-11-20T09:33:48;13.07;;;10.18;;
24161;SDS011;12318;51.262;7.066;2022-11-20T09:36:14;14.10;;;10.25;;
24161;SDS011;12318;51.262;7.066;2022-11-20T09:38:41;15.52;;;10.88;;
24161;SDS011;12318;51.262;7.066;2022-11-20T09:41:10;17.00;;;12.43;;
24161;SDS011;12318;51.262;7.066;2022-11-20T09:54:54;15.40;;;10.43;;
24161;SDS011;12318;51.262;7.066;2022-11-20T09:57:21;14.48;;;10.45;;
24161;SDS011;12318;51.262;7.066;2022-11-20T09:59:58;16.20;;;11.40;;
24161;SDS011;12318;51.262;7.066;2022-11-20T10:02:34;15.63;;;11.43;;
24161;SDS011;12318;51.262;7.066;2022-11-20T10:07:44;16.42;;;11.60;;
24161;SDS011;12318;51.262;7.066;2022-11-20T10:10:29;14.95;;;10.77;;
24161;SDS011;12318;51.262;7.066;2022-11-20T10:18:33;13.63;;;10.50;;
24161;SDS011;12318;51.262;7.066;2022-11-20T10:24:13;17.45;;;11.88;;
24161;SDS011;12318;51.262;7.066;2022-11-20T10:26:47;17.67;;;11.50;;
24161;SDS011;12318;51.262;7.066;2022-11-20T10:29:19;17.63;;;11.23;;
24161;SDS011;12318;51.262;7.066;2022-11-20T10:32:00;16.20;;;11.30;;
24161;SDS011;12318;51.262;7.066;2022-11-20T10:34:31;21.05;;;12.13;;
24161;SDS011;12318;51.262;7.066;2022-11-20T10:37:23;17.27;;;11.90;;
24161;SDS011;12318;51.262;7.066;2022-11-20T10:42:30;17.55;;;12.25;;
24161;SDS011;12318;51.262;7.066;2022-11-20T10:45:09;19.67;;;12.38;;
24161;SDS011;12318;51.262;7.066;2022-11-20T10:47:42;19.08;;;12.80;;
24161;SDS011;12318;51.262;7.066;2022-11-20T10:50:09;19.60;;;12.82;;
24161;SDS011;12318;51.262;7.066;2022-11-20T10:58:01;17.60;;;13.18;;
24161;SDS011;12318;51.262;7.066;2022-11-20T11:00:35;22.45;;;13.35;;
24161;SDS011;12318;51.262;7.066;2022-11-20T11:03:00;21.10;;;13.98;;
24161;SDS011;12318;51.262;7.066;2022-11-20T11:07:55;20.67;;;13.88;;
24161;SDS011;12318;51.262;7.066;2022-11-20T11:13:06;21.63;;;14.68;;
24161;SDS011;12318;51.262;7.066;2022-11-20T11:15:37;22.75;;;14.95;;
24161;SDS011;12318;51.262;7.066;2022-11-20T11:18:07;24.70;;;15.52;;
24161;SDS011;12318;51.262;7.066;2022-11-20T11:20:49;22.20;;;15.40;;
24161;SDS011;12318;51.262;7.066;2022-11-20T11:23:33;22.67;;;15.70;;
24161;SDS011;12318;51.262;7.066;2022-11-20T11:26:03;29.70;;;17.83;;
24161;SDS011;12318;51.262;7.066;2022-11-20T11:28:30;27.45;;;17.67;;
24161;SDS011;12318;51.262;7.066;2022-11-20T11:30:56;27.08;;;18.10;;
24161;SDS011;12318;51.262;7.066;2022-11-20T11:33:26;26.20;;;17.45;;
24161;SDS011;12318;51.262;7.066;2022-11-20T11:35:59;20.65;;;13.73;;
24161;SDS011;12318;51.262;7.066;2022-11-20T11:40:59;31.27;;;19.42;;
24161;SDS011;12318;51.262;7.066;2022-11-20T11:43:27;30.85;;;20.25;;
24161;SDS011;12318;51.262;7.066;2022-11-20T11:48:56;31.33;;;19.73;;
24161;SDS011;12318;51.262;7.066;2022-11-20T11:51:28;30.00;;;18.73;;
24161;SDS011;12318;51.262;7.066;2022-11-20T11:54:01;29.00;;;18.58;;
24161;SDS011;12318;51.262;7.066;2022-11-20T11:56:37;33.33;;;20.30;;
24161;SDS011;12318;51.262;7.066;2022-11-20T11:59:04;31.55;;;19.58;;
24161;SDS011;12318;51.262;7.066;2022-11-20T12:01:44;29.80;;;19.42;;
24161;SDS011;12318;51.262;7.066;2022-11-20T12:06:45;28.15;;;19.52;;
24161;SDS011;12318;51.262;7.066;2022-11-20T12:09:15;30.20;;;20.35;;
24161;SDS011;12318;51.262;7.066;2022-11-20T12:11:46;32.25;;;20.33;;
24161;SDS011;12318;51.262;7.066;2022-11-20T12:14:25;31.55;;;20.63;;
24161;SDS011;12318;51.262;7.066;2022-11-20T12:16:58;37.00;;;20.25;;
24161;SDS011;12318;51.262;7.066;2022-11-20T12:19:26;28.17;;;19.30;;
24161;SDS011;12318;51.262;7.066;2022-11-20T12:22:15;32.25;;;20.05;;
24161;SDS011;12318;51.262;7.066;2022-11-20T12:25:18;31.60;;;20.67;;
24161;SDS011;12318;51.262;7.066;2022-11-20T12:27:58;32.17;;;20.83;;
24161;SDS011;12318;51.262;7.066;2022-11-20T12:30:27;32.30;;;21.10;;
24161;SDS011;12318;51.262;7.066;2022-11-20T12:44:57;29.15;;;19.95;;
24161;SDS011;12318;51.262;7.066;2022-11-20T12:53:05;20.60;;;14.23;;
24161;SDS011;12318;51.262;7.066;2022-11-20T12:55:49;25.33;;;18.20;;
24161;SDS011;12318;51.262;7.066;2022-11-20T13:07:11;25.58;;;17.92;;
24161;SDS011;12318;51.262;7.066;2022-11-20T13:09:43;29.05;;;17.75;;
24161;SDS011;12318;51.262;7.066;2022-11-20T13:15:07;27.27;;;17.90;;
24161;SDS011;12318;51.262;7.066;2022-11-20T13:18:00;28.52;;;18.92;;
24161;SDS011;12318;51.262;7.066;2022-11-20T13:20:29;31.92;;;19.38;;
24161;SDS011;12318;51.262;7.066;2022-11-20T13:22:56;42.38;;;21.02;;
24161;SDS011;12318;51.262;7.066;2022-11-20T13:25:35;28.45;;;18.90;;
24161;SDS011;12318;51.262;7.066;2022-11-20T13:30:35;29.65;;;18.00;;
24161;SDS011;12318;51.262;7.066;2022-11-20T13:35:40;160.63;;;28.08;;
24161;SDS011;12318;51.262;7.066;2022-11-20T13:38:11;115.65;;;25.13;;
24161;SDS011;12318;51.262;7.066;2022-11-20T13:40:50;29.67;;;19.88;;
24161;SDS011;12318;51.262;7.066;2022-11-20T13:43:40;31.70;;;20.50;;
24161;SDS011;12318;51.262;7.066;2022-11-20T13:46:08;34.15;;;20.08;;
24161;SDS011;12318;51.262;7.066;2022-11-20T13:48:41;71.18;;;24.33;;
24161;SDS011;12318;51.262;7.066;2022-11-20T13:54:22;45.97;;;22.52;;
24161;SDS011;12318;51.262;7.066;2022-11-20T14:02:22;36.63;;;22.27;;
24161;SDS011;12318;51.262;7.066;2022-11-20T14:04:54;61.88;;;24.85;;
24161;SDS011;12318;51.262;7.066;2022-11-20T14:07:27;41.90;;;25.10;;
24161;SDS011;12318;51.262;7.066;2022-11-20T14:10:00;63.70;;;26.85;;
24161;SDS011;12318;51.262;7.066;2022-11-20T14:12:31;46.40;;;24.88;;
24161;SDS011;12318;51.262;7.066;2022-11-20T14:14:57;54.92;;;25.45;;
24161;SDS011;12318;51.262;7.066;2022-11-20T14:17:29;111.43;;;29.92;;
24161;SDS011;12318;51.262;7.066;2022-11-20T14:20:11;47.63;;;26.98;;
24161;SDS011;12318;51.262;7.066;2022-11-20T14:22:39;47.58;;;27.30;;
24161;SDS011;12318;51.262;7.066;2022-11-20T14:27:42;47.90;;;25.95;;
24161;SDS011;12318;51.262;7.066;2022-11-20T14:30:17;50.47;;;27.27;;
24161;SDS011;12318;51.262;7.066;2022-11-20T14:32:46;48.70;;;26.65;;
24161;SDS011;12318;51.262;7.066;2022-11-20T14:35:35;47.38;;;27.80;;
24161;SDS011;12318;51.262;7.066;2022-11-20T14:38:08;53.83;;;28.00;;
24161;SDS011;12318;51.262;7.066;2022-11-20T14:40:40;56.85;;;30.98;;
24161;SDS011;12318;51.262;7.066;2022-11-20T14:45:45;56.25;;;29.45;;
24161;SDS011;12318;51.262;7.066;2022-11-20T14:48:28;52.63;;;29.65;;
24161;SDS011;12318;51.262;7.066;2022-11-20T14:50:56;59.00;;;30.92;;
24161;SDS011;12318;51.262;7.066;2022-11-20T14:53:23;58.00;;;31.73;;
24161;SDS011;12318;51.262;7.066;2022-11-20T14:55:57;54.53;;;29.27;;
24161;SDS011;12318;51.262;7.066;2022-11-20T14:58:25;55.45;;;30.40;;
24161;SDS011;12318;51.262;7.066;2022-11-20T15:00:56;50.55;;;27.90;;
24161;SDS011;12318;51.262;7.066;2022-11-20T15:03:30;53.53;;;28.70;;
24161;SDS011;12318;51.262;7.066;2022-11-20T15:06:06;48.42;;;27.58;;
24161;SDS011;12318;51.262;7.066;2022-11-20T15:08:34;51.47;;;29.02;;
24161;SDS011;12318;51.262;7.066;2022-11-20T15:11:00;56.83;;;29.17;;
24161;SDS011;12318;51.262;7.066;2022-11-20T15:13:30;53.95;;;28.63;;
24161;SDS011;12318;51.262;7.066;2022-11-20T15:16:02;50.13;;;27.10;;
24161;SDS011;12318;51.262;7.066;2022-11-20T15:18:37;47.00;;;25.77;;
24161;SDS011;12318;51.262;7.066;2022-11-20T15:21:16;46.05;;;26.17;;
24161;SDS011;12318;51.262;7.066;2022-11-20T15:23:44;44.40;;;25.10;;
24161;SDS011;12318;51.262;7.066;2022-11-20T15:26:11;46.58;;;26.52;;
24161;SDS011;12318;51.262;7.066;2022-11-20T15:28:40;43.30;;;25.15;;
24161;SDS011;12318;51.262;7.066;2022-11-20T15:31:12;43.30;;;24.48;;
24161;SDS011;12318;51.262;7.066;2022-11-20T15:33:39;40.28;;;23.63;;
24161;SDS011;12318;51.262;7.066;2022-11-20T15:36:08;37.50;;;22.70;;
24161;SDS011;12318;51.262;7.066;2022-11-20T15:38:34;43.47;;;24.35;;
24161;SDS011;12318;51.262;7.066;2022-11-20T15:41:00;40.63;;;23.17;;
24161;SDS011;12318;51.262;7.066;2022-11-20T15:43:25;43.08;;;25.08;;
24161;SDS011;12318;51.262;7.066;2022-11-20T15:45:55;44.25;;;24.40;;
24161;SDS011;12318;51.262;7.066;2022-11-20T15:48:48;44.00;;;25.98;;
24161;SDS011;12318;51.262;7.066;2022-11-20T15:51:24;41.80;;;22.58;;
24161;SDS011;12318;51.262;7.066;2022-11-20T15:53:59;40.17;;;23.90;;
24161;SDS011;12318;51.262;7.066;2022-11-20T15:56:25;38.22;;;22.25;;
24161;SDS011;12318;51.262;7.066;2022-11-20T15:58:51;37.53;;;22.15;;
24161;SDS011;12318;51.262;7.066;2022-11-20T16:01:18;35.10;;;21.73;;
24161;SDS011;12318;51.262;7.066;2022-11-20T16:03:45;40.78;;;21.63;;
24161;SDS011;12318;51.262;7.066;2022-11-20T16:06:11;35.00;;;20.08;;
24161;SDS011;12318;51.262;7.066;2022-11-20T16:08:37;37.80;;;21.75;;